Ayer, MA

3:20 PM EST on January 31, 2015 (GMT -0500)
Ayer Center | Change Station
CLOSE
Current Station
Personal Weather Station
Location: Ayer, MA
Elevation: 230 ft
Nearby Weather Stations
Active Advisory: Winter Storm Watch

Elev 230 ft 42.56 °N, 71.59 °W | Updated 7 seconds ago

Clear
Clear
19.8 °F
Feels Like 13 °F
N
4.5
Wind Variable Wind from NW
Gusts 7.4 mph

Today
High -- | Low -- °F
--% Chance of Precip.
Yesterday
High -- | Low -- °F
Precip. -- in
7:01 AM 4:58 PM
Waxing Gibbous, 91% visible
Pressure 30.69 in
Visibility 10.0 miles
Clouds Clear
Windchill 13 °F
Dew Point -12 °F
Humidity 23%
Rainfall 0.00 in
Snow Depth Not available.
UV 1 out of 12
Pollen .10 out of 12
Air Quality Not available.
Flu Activity Not available.
METAR KASH 311951Z 33019G35KT 10SM CLR M07/M19 A2991 RMK AO2 T10721188 PK WND 32035/1939 SLP390 $

More Conditions Fewer Conditions

Pressure 30.69 in
Visibility 10.0 miles
Clouds Clear
Windchill 13 °F
Dew Point -12 °F
Humidity 23%
Rainfall 0.00 in
Snow Depth Not available.
UV 1 out of 12
Pollen .10 out of 12
Air Quality Not available.
Flu Activity Not available.
METAR KASH 311951Z 33019G35KT 10SM CLR M07/M19 A2991 RMK AO2 T10721188 PK WND 32035/1939 SLP390 $

More Conditions Fewer Conditions

10-Day Weather Forecast

Almanac

Astronomy

Jan. 31, 2015 Rise Set
Actual Time
Civil Twilight
Nautical Twilight
Astronomical Twilight
Moon
Length of Visible Light
Length of Day
Tomorrow will be .
, % of the Moon is Illuminated

Today's Extremes

State Highs State Lows

Community

WunderPhotos

Upload Photos

1,792,183 photos uploaded!

WunderBlogs® & News

Nearby

Air Quality

  Air Quality AQ Index Pollutant
Not available.

Snow Depth

Station Depth Elevation

Earthquake Activity

City Distance Mag. Time & Date
Minimum magnitude displayed is 2.5.

Coastal Water Temperatures

Place Temperature

Nearby Weather Stations